sensor_id;sensor_type;location;lat;lon;timestamp;pressure;altitude;pressure_sealevel;temperature;humidity
78383;BME280;67668;52.294;4.692;2023-07-29T00:00:45;100766.19;;;19.94;71.14
78383;BME280;67668;52.294;4.692;2023-07-29T00:03:11;100777.13;;;19.93;71.37
78383;BME280;67668;52.294;4.692;2023-07-29T00:05:37;100770.31;;;19.90;71.30
78383;BME280;67668;52.294;4.692;2023-07-29T00:08:03;100771.34;;;19.89;71.41
78383;BME280;67668;52.294;4.692;2023-07-29T00:10:28;100769.91;;;19.87;71.58
78383;BME280;67668;52.294;4.692;2023-07-29T00:12:54;100774.44;;;19.86;71.60
78383;BME280;67668;52.294;4.692;2023-07-29T00:15:19;100765.78;;;19.84;71.47
78383;BME280;67668;52.294;4.692;2023-07-29T00:17:45;100764.09;;;19.83;71.55
78383;BME280;67668;52.294;4.692;2023-07-29T00:20:10;100763.50;;;19.81;71.75
78383;BME280;67668;52.294;4.692;2023-07-29T00:22:36;100756.47;;;19.80;71.82
78383;BME280;67668;52.294;4.692;2023-07-29T00:25:01;100753.16;;;19.78;71.72
78383;BME280;67668;52.294;4.692;2023-07-29T00:27:27;100749.81;;;19.76;71.78
78383;BME280;67668;52.294;4.692;2023-07-29T00:29:52;100753.56;;;19.75;71.77
78383;BME280;67668;52.294;4.692;2023-07-29T00:32:18;100755.59;;;19.73;71.91
78383;BME280;67668;52.294;4.692;2023-07-29T00:34:43;100749.63;;;19.71;72.16
78383;BME280;67668;52.294;4.692;2023-07-29T00:37:09;100748.97;;;19.69;71.99
78383;BME280;67668;52.294;4.692;2023-07-29T00:39:35;100751.66;;;19.69;72.17
78383;BME280;67668;52.294;4.692;2023-07-29T00:42:02;100744.03;;;19.66;72.24
78383;BME280;67668;52.294;4.692;2023-07-29T00:44:27;100746.72;;;19.66;72.53
78383;BME280;67668;52.294;4.692;2023-07-29T00:46:53;100741.56;;;19.65;72.68
78383;BME280;67668;52.294;4.692;2023-07-29T00:49:20;100745.25;;;19.64;72.79
78383;BME280;67668;52.294;4.692;2023-07-29T00:51:46;100741.75;;;19.63;72.72
78383;BME280;67668;52.294;4.692;2023-07-29T00:54:12;100744.44;;;19.63;72.71
78383;BME280;67668;52.294;4.692;2023-07-29T00:56:38;100740.31;;;19.60;72.83
78383;BME280;67668;52.294;4.692;2023-07-29T00:59:03;100730.59;;;19.59;72.84
78383;BME280;67668;52.294;4.692;2023-07-29T01:01:30;100729.75;;;19.59;72.71
78383;BME280;67668;52.294;4.692;2023-07-29T01:03:57;100722.75;;;19.58;72.92
78383;BME280;67668;52.294;4.692;2023-07-29T01:06:53;100726.44;;;19.57;72.84
78383;BME280;67668;52.294;4.692;2023-07-29T01:15:16;100733.25;;;19.53;72.69
78383;BME280;67668;52.294;4.692;2023-07-29T01:17:54;100729.13;;;19.50;72.88
78383;BME280;67668;52.294;4.692;2023-07-29T01:20:21;100720.22;;;19.50;72.68
78383;BME280;67668;52.294;4.692;2023-07-29T01:22:49;100725.81;;;19.48;72.60
78383;BME280;67668;52.294;4.692;2023-07-29T01:25:14;100719.81;;;19.46;72.84
78383;BME280;67668;52.294;4.692;2023-07-29T01:27:42;100727.03;;;19.46;73.08
78383;BME280;67668;52.294;4.692;2023-07-29T01:30:08;100722.72;;;19.45;73.21
78383;BME280;67668;52.294;4.692;2023-07-29T01:32:53;100719.38;;;19.43;72.66
78383;BME280;67668;52.294;4.692;2023-07-29T01:35:45;100721.22;;;19.42;72.82
78383;BME280;67668;52.294;4.692;2023-07-29T01:38:17;100717.75;;;19.42;72.84
78383;BME280;67668;52.294;4.692;2023-07-29T01:40:44;100717.06;;;19.40;72.89
78383;BME280;67668;52.294;4.692;2023-07-29T01:43:10;100717.06;;;19.40;72.80
78383;BME280;67668;52.294;4.692;2023-07-29T01:45:36;100710.25;;;19.37;72.75
78383;BME280;67668;52.294;4.692;2023-07-29T01:48:05;100723.88;;;19.36;72.78
78383;BME280;67668;52.294;4.692;2023-07-29T01:50:31;100722.22;;;19.35;72.81
78383;BME280;67668;52.294;4.692;2023-07-29T01:52:58;100711.91;;;19.32;72.63
78383;BME280;67668;52.294;4.692;2023-07-29T01:55:23;100708.38;;;19.31;73.14
78383;BME280;67668;52.294;4.692;2023-07-29T01:57:49;100706.94;;;19.29;73.02
78383;BME280;67668;52.294;4.692;2023-07-29T02:00:15;100705.28;;;19.28;72.71
78383;BME280;67668;52.294;4.692;2023-07-29T02:02:40;100696.59;;;19.26;72.73
78383;BME280;67668;52.294;4.692;2023-07-29T02:05:06;100704.03;;;19.24;72.90
78383;BME280;67668;52.294;4.692;2023-07-29T02:07:31;100703.19;;;19.23;72.61
78383;BME280;67668;52.294;4.692;2023-07-29T02:09:57;100701.75;;;19.21;72.74
78383;BME280;67668;52.294;4.692;2023-07-29T02:12:22;100697.38;;;19.20;72.88
78383;BME280;67668;52.294;4.692;2023-07-29T02:14:48;100699.47;;;19.18;72.82
78383;BME280;67668;52.294;4.692;2023-07-29T02:17:13;100705.00;;;19.16;72.47
78383;BME280;67668;52.294;4.692;2023-07-29T02:19:38;100699.88;;;19.15;72.54
78383;BME280;67668;52.294;4.692;2023-07-29T02:22:04;100691.16;;;19.13;72.51
78383;BME280;67668;52.294;4.692;2023-07-29T02:24:29;100697.78;;;19.10;72.70
78383;BME280;67668;52.294;4.692;2023-07-29T02:26:55;100694.47;;;19.08;72.41
78383;BME280;67668;52.294;4.692;2023-07-29T02:29:20;100691.97;;;19.06;72.52
78383;BME280;67668;52.294;4.692;2023-07-29T02:31:46;100695.91;;;19.04;72.67
78383;BME280;67668;52.294;4.692;2023-07-29T02:34:13;100690.72;;;19.02;72.63
78383;BME280;67668;52.294;4.692;2023-07-29T02:36:39;100694.63;;;19.00;72.60
78383;BME280;67668;52.294;4.692;2023-07-29T02:39:04;100687.81;;;18.97;72.69
78383;BME280;67668;52.294;4.692;2023-07-29T02:41:30;100684.53;;;18.95;72.78
78383;BME280;67668;52.294;4.692;2023-07-29T02:43:55;100685.53;;;18.94;72.84
78383;BME280;67668;52.294;4.692;2023-07-29T02:46:21;100674.19;;;18.92;72.97
78383;BME280;67668;52.294;4.692;2023-07-29T02:48:46;100677.91;;;18.91;72.95
78383;BME280;67668;52.294;4.692;2023-07-29T02:51:11;100663.84;;;18.89;73.19
78383;BME280;67668;52.294;4.692;2023-07-29T02:53:37;100678.31;;;18.88;73.16
78383;BME280;67668;52.294;4.692;2023-07-29T02:56:04;100680.34;;;18.86;73.03
78383;BME280;67668;52.294;4.692;2023-07-29T02:58:29;100673.34;;;18.85;73.06
78383;BME280;67668;52.294;4.692;2023-07-29T03:01:02;100678.69;;;18.85;73.28
78383;BME280;67668;52.294;4.692;2023-07-29T03:03:28;100671.06;;;18.82;73.35
78383;BME280;67668;52.294;4.692;2023-07-29T03:06:14;100659.69;;;18.80;73.48
78383;BME280;67668;52.294;4.692;2023-07-29T03:08:39;100663.38;;;18.79;73.57
78383;BME280;67668;52.294;4.692;2023-07-29T03:11:10;100660.09;;;18.77;73.70
78383;BME280;67668;52.294;4.692;2023-07-29T03:13:36;100656.56;;;18.77;73.68
78383;BME280;67668;52.294;4.692;2023-07-29T03:16:09;100644.41;;;18.74;73.56
78383;BME280;67668;52.294;4.692;2023-07-29T03:18:35;100656.13;;;18.73;73.60
78383;BME280;67668;52.294;4.692;2023-07-29T03:21:01;100667.09;;;18.72;73.77
78383;BME280;67668;52.294;4.692;2023-07-29T03:23:28;100660.06;;;18.71;73.92
78383;BME280;67668;52.294;4.692;2023-07-29T03:25:55;100666.44;;;18.70;73.75
78383;BME280;67668;52.294;4.692;2023-07-29T03:28:29;100665.81;;;18.68;74.24
78383;BME280;67668;52.294;4.692;2023-07-29T03:30:57;100651.78;;;18.66;74.08
78383;BME280;67668;52.294;4.692;2023-07-29T03:33:24;100653.81;;;18.64;74.15
78383;BME280;67668;52.294;4.692;2023-07-29T03:35:50;100661.03;;;18.63;74.14
78383;BME280;67668;52.294;4.692;2023-07-29T03:38:15;100669.06;;;18.63;74.41
78383;BME280;67668;52.294;4.692;2023-07-29T03:40:42;100681.88;;;18.61;74.41
78383;BME280;67668;52.294;4.692;2023-07-29T03:43:08;100682.88;;;18.60;74.57
78383;BME280;67668;52.294;4.692;2023-07-29T03:45:33;100678.56;;;18.59;74.66
78383;BME280;67668;52.294;4.692;2023-07-29T03:47:59;100680.41;;;18.58;75.04
78383;BME280;67668;52.294;4.692;2023-07-29T03:50:24;100679.75;;;18.56;74.85
78383;BME280;67668;52.294;4.692;2023-07-29T03:52:50;100685.13;;;18.56;75.08
78383;BME280;67668;52.294;4.692;2023-07-29T03:55:17;100680.81;;;18.55;75.14
78383;BME280;67668;52.294;4.692;2023-07-29T03:57:42;100668.22;;;18.56;75.58
78383;BME280;67668;52.294;4.692;2023-07-29T04:00:08;100667.59;;;18.54;75.54
78383;BME280;67668;52.294;4.692;2023-07-29T04:02:34;100673.97;;;18.53;75.35
78383;BME280;67668;52.294;4.692;2023-07-29T04:05:03;100681.22;;;18.52;75.49
78383;BME280;67668;52.294;4.692;2023-07-29T04:07:28;100681.41;;;18.51;75.67
78383;BME280;67668;52.294;4.692;2023-07-29T04:09:54;100682.22;;;18.51;75.76
78383;BME280;67668;52.294;4.692;2023-07-29T04:12:19;100674.19;;;18.51;75.75
78383;BME280;67668;52.294;4.692;2023-07-29T04:14:47;100669.00;;;18.50;75.73
78383;BME280;67668;52.294;4.692;2023-07-29T04:17:13;100678.06;;;18.49;76.00
78383;BME280;67668;52.294;4.692;2023-07-29T04:19:38;100679.91;;;18.48;75.98
78383;BME280;67668;52.294;4.692;2023-07-29T04:22:15;100676.41;;;18.48;75.96
78383;BME280;67668;52.294;4.692;2023-07-29T04:24:41;100666.69;;;18.47;76.15
78383;BME280;67668;52.294;4.692;2023-07-29T04:27:06;100673.91;;;18.46;76.20
78383;BME280;67668;52.294;4.692;2023-07-29T04:29:32;100660.72;;;18.45;76.34
78383;BME280;67668;52.294;4.692;2023-07-29T04:31:57;100666.91;;;18.45;76.41
78383;BME280;67668;52.294;4.692;2023-07-29T04:34:22;100676.78;;;18.45;76.34
78383;BME280;67668;52.294;4.692;2023-07-29T04:36:48;100674.28;;;18.43;76.72
78383;BME280;67668;52.294;4.692;2023-07-29T04:39:14;100669.78;;;18.44;76.66
78383;BME280;67668;52.294;4.692;2023-07-29T04:41:40;100673.47;;;18.43;76.48
78383;BME280;67668;52.294;4.692;2023-07-29T04:44:06;100673.47;;;18.43;76.29
78383;BME280;67668;52.294;4.692;2023-07-29T04:46:32;100681.72;;;18.41;76.80
78383;BME280;67668;52.294;4.692;2023-07-29T04:48:57;100681.50;;;18.43;76.70
78383;BME280;67668;52.294;4.692;2023-07-29T04:51:23;100678.81;;;18.43;76.94
78383;BME280;67668;52.294;4.692;2023-07-29T04:53:48;100686.06;;;18.42;76.92
78383;BME280;67668;52.294;4.692;2023-07-29T04:56:14;100678.81;;;18.43;76.88
78383;BME280;67668;52.294;4.692;2023-07-29T04:58:39;100682.53;;;18.42;77.17
78383;BME280;67668;52.294;4.692;2023-07-29T05:01:05;100680.69;;;18.42;77.05
78383;BME280;67668;52.294;4.692;2023-07-29T05:03:31;100682.53;;;18.42;77.13
78383;BME280;67668;52.294;4.692;2023-07-29T05:05:58;100677.19;;;18.42;77.11
78383;BME280;67668;52.294;4.692;2023-07-29T05:08:25;100686.06;;;18.42;77.23
78383;BME280;67668;52.294;4.692;2023-07-29T05:10:52;100684.19;;;18.43;77.58
78383;BME280;67668;52.294;4.692;2023-07-29T05:13:24;100683.16;;;18.44;77.47
78383;BME280;67668;52.294;4.692;2023-07-29T05:15:50;100687.50;;;18.45;77.49
78383;BME280;67668;52.294;4.692;2023-07-29T05:18:16;100689.19;;;18.46;77.46
78383;BME280;67668;52.294;4.692;2023-07-29T05:20:43;100691.03;;;18.45;77.50
78383;BME280;67668;52.294;4.692;2023-07-29T05:23:09;100689.19;;;18.46;77.70
78383;BME280;67668;52.294;4.692;2023-07-29T05:25:34;100692.66;;;18.46;77.59
78383;BME280;67668;52.294;4.692;2023-07-29T05:28:01;100688.13;;;18.47;77.67
78383;BME280;67668;52.294;4.692;2023-07-29T05:30:26;100674.72;;;18.47;77.59
78383;BME280;67668;52.294;4.692;2023-07-29T05:32:52;100675.56;;;18.47;77.69
78383;BME280;67668;52.294;4.692;2023-07-29T05:35:17;100678.06;;;18.49;77.82
78383;BME280;67668;52.294;4.692;2023-07-29T05:37:43;100665.69;;;18.48;78.03
78383;BME280;67668;52.294;4.692;2023-07-29T05:40:08;100679.72;;;18.50;78.44
78383;BME280;67668;52.294;4.692;2023-07-29T05:42:34;100673.50;;;18.49;78.14
78383;BME280;67668;52.294;4.692;2023-07-29T05:45:01;100669.84;;;18.50;78.46
78383;BME280;67668;52.294;4.692;2023-07-29T05:47:26;100677.03;;;18.50;78.17
78383;BME280;67668;52.294;4.692;2023-07-29T05:49:52;100672.34;;;18.52;78.11
78383;BME280;67668;52.294;4.692;2023-07-29T05:52:18;100675.00;;;18.52;78.11
78383;BME280;67668;52.294;4.692;2023-07-29T05:54:43;100675.63;;;18.54;78.18
78383;BME280;67668;52.294;4.692;2023-07-29T05:57:10;100675.44;;;18.55;78.03
78383;BME280;67668;52.294;4.692;2023-07-29T05:59:35;100676.25;;;18.56;78.10
78383;BME280;67668;52.294;4.692;2023-07-29T06:02:01;100669.88;;;18.57;78.39
78383;BME280;67668;52.294;4.692;2023-07-29T06:04:26;100673.22;;;18.59;78.24
78383;BME280;67668;52.294;4.692;2023-07-29T06:06:52;100673.00;;;18.61;77.91
78383;BME280;67668;52.294;4.692;2023-07-29T06:09:17;100678.16;;;18.62;78.18
78383;BME280;67668;52.294;4.692;2023-07-29T06:11:43;100680.63;;;18.64;78.34
78383;BME280;67668;52.294;4.692;2023-07-29T06:14:08;100682.31;;;18.65;78.26
78383;BME280;67668;52.294;4.692;2023-07-29T06:16:34;100688.50;;;18.65;78.48
78383;BME280;67668;52.294;4.692;2023-07-29T06:18:59;100691.78;;;18.67;78.14
78383;BME280;67668;52.294;4.692;2023-07-29T06:21:25;100696.13;;;18.68;78.67
78383;BME280;67668;52.294;4.692;2023-07-29T06:23:50;100694.06;;;18.70;78.10
78383;BME280;67668;52.294;4.692;2023-07-29T06:26:15;100696.75;;;18.70;78.38
78383;BME280;67668;52.294;4.692;2023-07-29T06:28:41;100702.94;;;18.71;78.06
78383;BME280;67668;52.294;4.692;2023-07-29T06:31:06;100701.09;;;18.71;78.22
78383;BME280;67668;52.294;4.692;2023-07-29T06:33:32;100704.41;;;18.73;79.03
78383;BME280;67668;52.294;4.692;2023-07-29T06:35:57;100708.75;;;18.74;78.65
78383;BME280;67668;52.294;4.692;2023-07-29T06:38:22;100706.69;;;18.76;78.23
78383;BME280;67668;52.294;4.692;2023-07-29T06:40:48;100701.13;;;18.78;78.88
78383;BME280;67668;52.294;4.692;2023-07-29T06:43:14;100708.16;;;18.79;79.14
78383;BME280;67668;52.294;4.692;2023-07-29T06:45:39;100704.44;;;18.80;78.62
78383;BME280;67668;52.294;4.692;2023-07-29T06:48:05;100703.59;;;18.79;79.56
78383;BME280;67668;52.294;4.692;2023-07-29T06:50:30;100702.59;;;18.80;79.47
78383;BME280;67668;52.294;4.692;2023-07-29T06:52:56;100697.88;;;18.82;79.28
78383;BME280;67668;52.294;4.692;2023-07-29T06:55:21;100703.03;;;18.84;79.45
78383;BME280;67668;52.294;4.692;2023-07-29T06:57:47;100699.31;;;18.85;79.16
78383;BME280;67668;52.294;4.692;2023-07-29T07:00:12;100705.53;;;18.85;79.31
78383;BME280;67668;52.294;4.692;2023-07-29T07:02:37;100695.41;;;18.87;79.68
78383;BME280;67668;52.294;4.692;2023-07-29T07:05:03;100696.84;;;18.90;79.91
78383;BME280;67668;52.294;4.692;2023-07-29T07:07:28;100701.03;;;18.92;79.74
78383;BME280;67668;52.294;4.692;2023-07-29T07:09:54;100694.41;;;18.95;80.06
78383;BME280;67668;52.294;4.692;2023-07-29T07:12:19;100694.22;;;18.96;80.84
78383;BME280;67668;52.294;4.692;2023-07-29T07:14:45;100692.34;;;18.97;79.83
78383;BME280;67668;52.294;4.692;2023-07-29T07:17:10;100698.16;;;19.00;80.04
78383;BME280;67668;52.294;4.692;2023-07-29T07:19:35;100697.75;;;19.03;80.01
78383;BME280;67668;52.294;4.692;2023-07-29T07:22:01;100683.75;;;19.08;81.03
78383;BME280;67668;52.294;4.692;2023-07-29T07:24:26;100686.84;;;19.12;80.90
78383;BME280;67668;52.294;4.692;2023-07-29T07:26:52;100691.59;;;19.16;81.16
78383;BME280;67668;52.294;4.692;2023-07-29T07:29:17;100697.63;;;19.18;80.81
78383;BME280;67668;52.294;4.692;2023-07-29T07:31:50;100695.34;;;19.22;81.77
78383;BME280;67668;52.294;4.692;2023-07-29T07:34:15;100703.41;;;19.22;81.25
78383;BME280;67668;52.294;4.692;2023-07-29T07:36:41;100707.72;;;19.23;80.38
78383;BME280;67668;52.294;4.692;2023-07-29T07:39:06;100713.09;;;19.23;80.75
78383;BME280;67668;52.294;4.692;2023-07-29T07:41:32;100705.69;;;19.25;80.79
78383;BME280;67668;52.294;4.692;2023-07-29T07:43:57;100702.78;;;19.26;80.98
78383;BME280;67668;52.294;4.692;2023-07-29T07:46:22;100713.31;;;19.28;81.03
78383;BME280;67668;52.294;4.692;2023-07-29T07:48:48;100715.59;;;19.31;80.84
78383;BME280;67668;52.294;4.692;2023-07-29T07:51:13;100715.19;;;19.34;81.03
78383;BME280;67668;52.294;4.692;2023-07-29T07:53:39;100720.16;;;19.37;82.05
78383;BME280;67668;52.294;4.692;2023-07-29T07:56:05;100718.94;;;19.39;80.54
78383;BME280;67668;52.294;4.692;2023-07-29T07:58:31;100719.38;;;19.43;80.40
78383;BME280;67668;52.294;4.692;2023-07-29T08:01:07;100724.75;;;19.43;78.56
78383;BME280;67668;52.294;4.692;2023-07-29T08:03:33;100730.53;;;19.46;78.50
78383;BME280;67668;52.294;4.692;2023-07-29T08:05:58;100732.22;;;19.47;78.22
78383;BME280;67668;52.294;4.692;2023-07-29T08:08:26;100734.50;;;19.50;78.39
78383;BME280;67668;52.294;4.692;2023-07-29T08:10:56;100741.72;;;19.50;77.90
78383;BME280;67668;52.294;4.692;2023-07-29T08:13:23;100738.00;;;19.51;77.68
78383;BME280;67668;52.294;4.692;2023-07-29T08:15:50;100747.50;;;19.53;77.54
78383;BME280;67668;52.294;4.692;2023-07-29T08:18:16;100747.50;;;19.53;77.74
78383;BME280;67668;52.294;4.692;2023-07-29T08:20:54;100743.59;;;19.56;78.09
78383;BME280;67668;52.294;4.692;2023-07-29T08:23:20;100745.25;;;19.57;77.89
78383;BME280;67668;52.294;4.692;2023-07-29T08:25:52;100748.75;;;19.57;77.34
78383;BME280;67668;52.294;4.692;2023-07-29T08:28:17;100743.16;;;19.59;77.57
78383;BME280;67668;52.294;4.692;2023-07-29T08:30:43;100739.47;;;19.60;77.47
78383;BME280;67668;52.294;4.692;2023-07-29T08:33:08;100743.81;;;19.61;76.91
78383;BME280;67668;52.294;4.692;2023-07-29T08:35:33;100740.91;;;19.63;77.30
78383;BME280;67668;52.294;4.692;2023-07-29T08:38:02;100747.94;;;19.64;76.86
78383;BME280;67668;52.294;4.692;2023-07-29T08:40:29;100751.06;;;19.67;77.20
78383;BME280;67668;52.294;4.692;2023-07-29T08:42:56;100748.56;;;19.66;76.74
78383;BME280;67668;52.294;4.692;2023-07-29T08:45:24;100756.25;;;19.69;76.65
78383;BME280;67668;52.294;4.692;2023-07-29T08:47:52;100751.88;;;19.68;76.19
78383;BME280;67668;52.294;4.692;2023-07-29T08:50:20;100755.19;;;19.70;76.84
78383;BME280;67668;52.294;4.692;2023-07-29T08:52:47;100751.47;;;19.71;77.10
78383;BME280;67668;52.294;4.692;2023-07-29T08:55:14;100762.84;;;19.73;77.00
78383;BME280;67668;52.294;4.692;2023-07-29T08:57:40;100759.53;;;19.71;76.43
78383;BME280;67668;52.294;4.692;2023-07-29T09:00:06;100763.06;;;19.71;76.91
78383;BME280;67668;52.294;4.692;2023-07-29T09:02:32;100765.75;;;19.71;76.59
78383;BME280;67668;52.294;4.692;2023-07-29T09:04:57;100765.75;;;19.71;76.43
78383;BME280;67668;52.294;4.692;2023-07-29T09:07:23;100759.31;;;19.72;76.87
78383;BME280;67668;52.294;4.692;2023-07-29T09:09:48;100769.69;;;19.75;77.18
78383;BME280;67668;52.294;4.692;2023-07-29T09:12:14;100764.09;;;19.77;77.11
78383;BME280;67668;52.294;4.692;2023-07-29T09:14:39;100767.59;;;19.77;76.72
78383;BME280;67668;52.294;4.692;2023-07-29T09:17:08;100761.22;;;19.78;76.50
78383;BME280;67668;52.294;4.692;2023-07-29T09:19:35;100764.50;;;19.80;76.03
78383;BME280;67668;52.294;4.692;2023-07-29T09:22:01;100767.81;;;19.82;76.24
78383;BME280;67668;52.294;4.692;2023-07-29T09:24:27;100764.53;;;19.87;76.67
78383;BME280;67668;52.294;4.692;2023-07-29T09:26:55;100766.19;;;19.94;77.43
78383;BME280;67668;52.294;4.692;2023-07-29T09:29:24;100755.66;;;19.99;76.08
78383;BME280;67668;52.294;4.692;2023-07-29T09:31:53;100751.34;;;20.05;75.96
78383;BME280;67668;52.294;4.692;2023-07-29T09:34:18;100749.03;;;20.08;75.84
78383;BME280;67668;52.294;4.692;2023-07-29T09:36:44;100747.19;;;20.16;76.02
78383;BME280;67668;52.294;4.692;2023-07-29T09:39:15;100748.44;;;20.20;74.88
78383;BME280;67668;52.294;4.692;2023-07-29T09:41:40;100748.03;;;20.23;74.96
78383;BME280;67668;52.294;4.692;2023-07-29T09:44:06;100740.22;;;20.28;74.52
78383;BME280;67668;52.294;4.692;2023-07-29T09:46:34;100733.16;;;20.33;74.51
78383;BME280;67668;52.294;4.692;2023-07-29T09:49:02;100754.06;;;20.38;74.64
78383;BME280;67668;52.294;4.692;2023-07-29T09:51:27;100754.25;;;20.43;73.89
78383;BME280;67668;52.294;4.692;2023-07-29T09:53:52;100775.34;;;20.46;73.99
78383;BME280;67668;52.294;4.692;2023-07-29T09:56:24;100776.59;;;20.50;74.05
78383;BME280;67668;52.294;4.692;2023-07-29T09:58:50;100771.81;;;20.52;72.68
78383;BME280;67668;52.294;4.692;2023-07-29T10:01:17;100773.28;;;20.54;72.74
78383;BME280;67668;52.294;4.692;2023-07-29T10:03:44;100763.97;;;20.57;72.98
78383;BME280;67668;52.294;4.692;2023-07-29T10:06:10;100759.19;;;20.59;73.27
78383;BME280;67668;52.294;4.692;2023-07-29T10:08:36;100754.22;;;20.62;73.05
78383;BME280;67668;52.294;4.692;2023-07-29T10:11:06;100754.03;;;20.64;73.18
78383;BME280;67668;52.294;4.692;2023-07-29T10:13:33;100757.31;;;20.66;72.90
78383;BME280;67668;52.294;4.692;2023-07-29T10:15:59;100759.00;;;20.67;73.27
78383;BME280;67668;52.294;4.692;2023-07-29T10:18:28;100769.34;;;20.70;73.05
78383;BME280;67668;52.294;4.692;2023-07-29T10:20:56;100764.78;;;20.71;72.89
78383;BME280;67668;52.294;4.692;2023-07-29T10:23:22;100774.47;;;20.72;73.25
78383;BME280;67668;52.294;4.692;2023-07-29T10:25:55;100777.81;;;20.74;73.13
78383;BME280;67668;52.294;4.692;2023-07-29T10:28:25;100776.56;;;20.76;73.05
78383;BME280;67668;52.294;4.692;2023-07-29T10:30:51;100771.78;;;20.78;73.44
78383;BME280;67668;52.294;4.692;2023-07-29T10:33:17;100776.78;;;20.81;73.79
78383;BME280;67668;52.294;4.692;2023-07-29T10:35:42;100778.63;;;20.81;73.13
78383;BME280;67668;52.294;4.692;2023-07-29T10:38:08;100787.31;;;20.83;73.62
78383;BME280;67668;52.294;4.692;2023-07-29T10:40:46;100785.22;;;20.85;73.21
78383;BME280;67668;52.294;4.692;2023-07-29T10:43:15;100787.72;;;20.86;73.20
78383;BME280;67668;52.294;4.692;2023-07-29T10:45:43;100787.91;;;20.91;73.73
78383;BME280;67668;52.294;4.692;2023-07-29T10:48:13;100794.75;;;20.94;73.57
78383;BME280;67668;52.294;4.692;2023-07-29T10:51:28;100773.22;;;20.94;71.97
78383;BME280;67668;52.294;4.692;2023-07-29T10:54:09;100763.06;;;20.96;71.83
78383;BME280;67668;52.294;4.692;2023-07-29T10:56:37;100761.59;;;21.00;72.23
78383;BME280;67668;52.294;4.692;2023-07-29T10:59:33;100777.31;;;21.03;71.59
78383;BME280;67668;52.294;4.692;2023-07-29T11:02:03;100766.75;;;21.08;71.75
78383;BME280;67668;52.294;4.692;2023-07-29T11:04:46;100771.53;;;21.12;71.74
78383;BME280;67668;52.294;4.692;2023-07-29T11:10:00;100765.28;;;21.19;71.03
78383;BME280;67668;52.294;4.692;2023-07-29T11:12:51;100763.84;;;21.23;71.41
78383;BME280;67668;52.294;4.692;2023-07-29T11:15:25;100768.59;;;21.27;71.41
78383;BME280;67668;52.294;4.692;2023-07-29T11:17:59;100767.53;;;21.28;71.14
78383;BME280;67668;52.294;4.692;2023-07-29T11:22:52;100759.66;;;21.33;70.98
78383;BME280;67668;52.294;4.692;2023-07-29T11:25:18;100757.38;;;21.37;70.75
78383;BME280;67668;52.294;4.692;2023-07-29T11:27:46;100761.69;;;21.38;70.44
78383;BME280;67668;52.294;4.692;2023-07-29T11:30:12;100766.03;;;21.39;70.47
78383;BME280;67668;52.294;4.692;2023-07-29T11:32:40;100767.72;;;21.40;70.52
78383;BME280;67668;52.294;4.692;2023-07-29T11:35:14;100770.16;;;21.41;70.42
78383;BME280;67668;52.294;4.692;2023-07-29T11:37:45;100772.66;;;21.43;70.45
78383;BME280;67668;52.294;4.692;2023-07-29T11:40:18;100772.66;;;21.43;70.14
78383;BME280;67668;52.294;4.692;2023-07-29T11:42:44;100772.22;;;21.46;70.15
78383;BME280;67668;52.294;4.692;2023-07-29T11:45:10;100767.69;;;21.46;70.03
78383;BME280;67668;52.294;4.692;2023-07-29T11:47:36;100768.28;;;21.48;70.17
78383;BME280;67668;52.294;4.692;2023-07-29T11:50:04;100783.19;;;21.51;70.56
78383;BME280;67668;52.294;4.692;2023-07-29T11:52:32;100780.72;;;21.49;70.84
78383;BME280;67668;52.294;4.692;2023-07-29T11:54:58;100796.66;;;21.51;71.56
78383;BME280;67668;52.294;4.692;2023-07-29T11:57:23;100780.50;;;21.51;71.85
78383;BME280;67668;52.294;4.692;2023-07-29T11:59:49;100787.53;;;21.52;71.99
78383;BME280;67668;52.294;4.692;2023-07-29T12:02:19;100789.19;;;21.53;72.16
78383;BME280;67668;52.294;4.692;2023-07-29T12:04:48;100787.53;;;21.52;71.91
78383;BME280;67668;52.294;4.692;2023-07-29T12:07:16;100785.66;;;21.52;71.92
78383;BME280;67668;52.294;4.692;2023-07-29T12:09:42;100783.56;;;21.54;72.17
78383;BME280;67668;52.294;4.692;2023-07-29T12:12:08;100777.16;;;21.55;71.76
78383;BME280;67668;52.294;4.692;2023-07-29T12:14:34;100768.88;;;21.57;71.86
78383;BME280;67668;52.294;4.692;2023-07-29T12:17:02;100771.34;;;21.58;71.94
78383;BME280;67668;52.294;4.692;2023-07-29T12:19:33;100772.75;;;21.61;71.77
78383;BME280;67668;52.294;4.692;2023-07-29T12:21:59;100764.69;;;21.61;72.00
78383;BME280;67668;52.294;4.692;2023-07-29T12:24:25;100768.00;;;21.63;72.63
78383;BME280;67668;52.294;4.692;2023-07-29T12:26:50;100757.81;;;21.65;72.81
78383;BME280;67668;52.294;4.692;2023-07-29T12:29:19;100758.84;;;21.71;72.95
78383;BME280;67668;52.294;4.692;2023-07-29T12:31:47;100761.94;;;21.74;72.23
78383;BME280;67668;52.294;4.692;2023-07-29T12:34:20;100765.44;;;21.75;70.59
78383;BME280;67668;52.294;4.692;2023-07-29T12:36:49;100761.50;;;21.77;70.52
78383;BME280;67668;52.294;4.692;2023-07-29T12:39:22;100770.19;;;21.79;70.87
78383;BME280;67668;52.294;4.692;2023-07-29T12:41:50;100758.38;;;21.80;69.02
78383;BME280;67668;52.294;4.692;2023-07-29T12:44:16;100770.34;;;21.84;69.09
78383;BME280;67668;52.294;4.692;2023-07-29T12:46:41;100758.53;;;21.85;68.70
78383;BME280;67668;52.294;4.692;2023-07-29T12:49:07;100755.22;;;21.90;69.16
78383;BME280;67668;52.294;4.692;2023-07-29T12:51:33;100762.06;;;21.92;68.93
78383;BME280;67668;52.294;4.692;2023-07-29T12:53:58;100764.09;;;21.97;68.22
78383;BME280;67668;52.294;4.692;2023-07-29T12:56:24;100766.53;;;22.05;68.61
78383;BME280;67668;52.294;4.692;2023-07-29T12:58:49;100764.59;;;22.12;68.01
78383;BME280;67668;52.294;4.692;2023-07-29T13:01:16;100767.25;;;22.19;67.26